sensor_id;sensor_type;location;lat;lon;timestamp;P1;durP1;ratioP1;P2;durP2;ratioP2
19569;SDS011;9931;51.458;7.256;2023-08-20T00:00:39;23.65;;;1.90;;
19569;SDS011;9931;51.458;7.256;2023-08-20T00:03:10;24.00;;;2.00;;
19569;SDS011;9931;51.458;7.256;2023-08-20T00:05:35;12.77;;;1.17;;
19569;SDS011;9931;51.458;7.256;2023-08-20T00:08:00;43.58;;;3.25;;
19569;SDS011;9931;51.458;7.256;2023-08-20T00:10:26;18.87;;;1.57;;
19569;SDS011;9931;51.458;7.256;2023-08-20T00:12:51;19.77;;;1.65;;
19569;SDS011;9931;51.458;7.256;2023-08-20T00:15:16;25.42;;;2.03;;
19569;SDS011;9931;51.458;7.256;2023-08-20T00:17:42;18.30;;;1.52;;
19569;SDS011;9931;51.458;7.256;2023-08-20T00:20:08;19.98;;;1.65;;
19569;SDS011;9931;51.458;7.256;2023-08-20T00:22:37;13.25;;;1.27;;
19569;SDS011;9931;51.458;7.256;2023-08-20T00:25:02;22.50;;;1.80;;
19569;SDS011;9931;51.458;7.256;2023-08-20T00:27:31;19.90;;;1.63;;
19569;SDS011;9931;51.458;7.256;2023-08-20T00:29:56;20.02;;;1.70;;
19569;SDS011;9931;51.458;7.256;2023-08-20T00:32:21;15.43;;;1.33;;
19569;SDS011;9931;51.458;7.256;2023-08-20T00:34:46;7.18;;;0.73;;
19569;SDS011;9931;51.458;7.256;2023-08-20T00:37:12;26.42;;;2.13;;
19569;SDS011;9931;51.458;7.256;2023-08-20T00:39:37;16.98;;;1.50;;
19569;SDS011;9931;51.458;7.256;2023-08-20T00:42:02;22.70;;;1.90;;
19569;SDS011;9931;51.458;7.256;2023-08-20T00:44:29;8.48;;;0.88;;
19569;SDS011;9931;51.458;7.256;2023-08-20T00:46:54;16.80;;;1.50;;
19569;SDS011;9931;51.458;7.256;2023-08-20T00:49:19;24.65;;;1.85;;
19569;SDS011;9931;51.458;7.256;2023-08-20T00:51:45;35.30;;;2.70;;
19569;SDS011;9931;51.458;7.256;2023-08-20T00:54:10;28.70;;;2.28;;
19569;SDS011;9931;51.458;7.256;2023-08-20T00:56:36;25.17;;;2.05;;
19569;SDS011;9931;51.458;7.256;2023-08-20T00:59:01;9.80;;;0.93;;
19569;SDS011;9931;51.458;7.256;2023-08-20T01:01:26;21.05;;;1.70;;
19569;SDS011;9931;51.458;7.256;2023-08-20T01:03:51;21.10;;;1.75;;
19569;SDS011;9931;51.458;7.256;2023-08-20T01:09:03;21.52;;;1.75;;
19569;SDS011;9931;51.458;7.256;2023-08-20T01:11:34;19.40;;;1.60;;
19569;SDS011;9931;51.458;7.256;2023-08-20T01:14:01;19.35;;;1.63;;
19569;SDS011;9931;51.458;7.256;2023-08-20T01:16:26;21.13;;;1.77;;
19569;SDS011;9931;51.458;7.256;2023-08-20T01:18:51;32.20;;;2.50;;
19569;SDS011;9931;51.458;7.256;2023-08-20T01:21:23;22.02;;;1.83;;
19569;SDS011;9931;51.458;7.256;2023-08-20T01:26:21;21.67;;;1.73;;
19569;SDS011;9931;51.458;7.256;2023-08-20T01:28:50;22.92;;;1.85;;
19569;SDS011;9931;51.458;7.256;2023-08-20T01:31:15;39.80;;;2.95;;
19569;SDS011;9931;51.458;7.256;2023-08-20T01:33:41;22.93;;;1.87;;
19569;SDS011;9931;51.458;7.256;2023-08-20T01:36:07;42.85;;;3.03;;
19569;SDS011;9931;51.458;7.256;2023-08-20T01:38:34;20.90;;;1.77;;
19569;SDS011;9931;51.458;7.256;2023-08-20T01:41:00;26.15;;;2.08;;
19569;SDS011;9931;51.458;7.256;2023-08-20T01:43:25;30.45;;;2.28;;
19569;SDS011;9931;51.458;7.256;2023-08-20T01:45:50;21.83;;;1.83;;
19569;SDS011;9931;51.458;7.256;2023-08-20T01:48:15;20.48;;;1.60;;
19569;SDS011;9931;51.458;7.256;2023-08-20T01:50:40;15.77;;;1.33;;
19569;SDS011;9931;51.458;7.256;2023-08-20T01:53:06;19.92;;;1.63;;
19569;SDS011;9931;51.458;7.256;2023-08-20T01:55:31;41.65;;;3.05;;
19569;SDS011;9931;51.458;7.256;2023-08-20T01:57:56;29.30;;;2.35;;
19569;SDS011;9931;51.458;7.256;2023-08-20T02:00:21;34.22;;;2.72;;
19569;SDS011;9931;51.458;7.256;2023-08-20T02:02:46;12.65;;;1.20;;
19569;SDS011;9931;51.458;7.256;2023-08-20T02:05:12;19.50;;;1.63;;
19569;SDS011;9931;51.458;7.256;2023-08-20T02:07:37;19.77;;;1.70;;
19569;SDS011;9931;51.458;7.256;2023-08-20T02:10:02;18.88;;;1.65;;
19569;SDS011;9931;51.458;7.256;2023-08-20T02:12:28;18.73;;;1.58;;
19569;SDS011;9931;51.458;7.256;2023-08-20T02:14:53;20.23;;;1.67;;
19569;SDS011;9931;51.458;7.256;2023-08-20T02:17:18;22.00;;;1.80;;
19569;SDS011;9931;51.458;7.256;2023-08-20T02:19:43;19.58;;;1.65;;
19569;SDS011;9931;51.458;7.256;2023-08-20T02:22:09;24.30;;;1.90;;
19569;SDS011;9931;51.458;7.256;2023-08-20T02:24:34;25.92;;;2.08;;
19569;SDS011;9931;51.458;7.256;2023-08-20T02:26:59;23.93;;;1.97;;
19569;SDS011;9931;51.458;7.256;2023-08-20T02:29:24;21.08;;;1.75;;
19569;SDS011;9931;51.458;7.256;2023-08-20T02:31:49;39.47;;;3.00;;
19569;SDS011;9931;51.458;7.256;2023-08-20T02:34:16;33.17;;;2.55;;
19569;SDS011;9931;51.458;7.256;2023-08-20T02:36:41;12.27;;;1.08;;
19569;SDS011;9931;51.458;7.256;2023-08-20T02:39:07;20.20;;;1.67;;
19569;SDS011;9931;51.458;7.256;2023-08-20T02:41:35;22.67;;;1.83;;
19569;SDS011;9931;51.458;7.256;2023-08-20T02:44:03;56.50;;;4.05;;
19569;SDS011;9931;51.458;7.256;2023-08-20T02:46:29;9.20;;;0.90;;
19569;SDS011;9931;51.458;7.256;2023-08-20T02:48:54;21.80;;;1.83;;
19569;SDS011;9931;51.458;7.256;2023-08-20T02:51:19;20.35;;;1.70;;
19569;SDS011;9931;51.458;7.256;2023-08-20T02:53:44;24.45;;;2.03;;
19569;SDS011;9931;51.458;7.256;2023-08-20T02:56:10;27.98;;;2.10;;
19569;SDS011;9931;51.458;7.256;2023-08-20T02:58:35;18.38;;;1.55;;
19569;SDS011;9931;51.458;7.256;2023-08-20T03:01:00;21.30;;;1.73;;
19569;SDS011;9931;51.458;7.256;2023-08-20T03:03:25;29.73;;;2.28;;
19569;SDS011;9931;51.458;7.256;2023-08-20T03:05:51;27.00;;;2.07;;
19569;SDS011;9931;51.458;7.256;2023-08-20T03:08:16;21.70;;;1.80;;
19569;SDS011;9931;51.458;7.256;2023-08-20T03:10:41;18.83;;;1.60;;
19569;SDS011;9931;51.458;7.256;2023-08-20T03:13:06;17.52;;;1.50;;
19569;SDS011;9931;51.458;7.256;2023-08-20T03:15:31;33.07;;;2.50;;
19569;SDS011;9931;51.458;7.256;2023-08-20T03:17:57;15.55;;;1.38;;
19569;SDS011;9931;51.458;7.256;2023-08-20T03:20:22;15.90;;;1.35;;
19569;SDS011;9931;51.458;7.256;2023-08-20T03:22:47;14.63;;;1.33;;
19569;SDS011;9931;51.458;7.256;2023-08-20T03:25:13;30.85;;;2.40;;
19569;SDS011;9931;51.458;7.256;2023-08-20T03:27:38;13.93;;;1.15;;
19569;SDS011;9931;51.458;7.256;2023-08-20T03:30:03;18.92;;;1.60;;
19569;SDS011;9931;51.458;7.256;2023-08-20T03:32:29;16.88;;;1.42;;
19569;SDS011;9931;51.458;7.256;2023-08-20T03:34:54;16.83;;;1.50;;
19569;SDS011;9931;51.458;7.256;2023-08-20T03:37:20;13.35;;;1.20;;
19569;SDS011;9931;51.458;7.256;2023-08-20T03:39:46;15.30;;;1.30;;
19569;SDS011;9931;51.458;7.256;2023-08-20T03:42:11;20.70;;;1.73;;
19569;SDS011;9931;51.458;7.256;2023-08-20T03:44:36;28.40;;;2.27;;
19569;SDS011;9931;51.458;7.256;2023-08-20T03:47:01;7.50;;;0.73;;
19569;SDS011;9931;51.458;7.256;2023-08-20T03:49:27;15.98;;;1.40;;
19569;SDS011;9931;51.458;7.256;2023-08-20T03:51:52;14.27;;;1.27;;
19569;SDS011;9931;51.458;7.256;2023-08-20T03:54:17;25.77;;;2.13;;
19569;SDS011;9931;51.458;7.256;2023-08-20T03:56:42;12.73;;;1.17;;
19569;SDS011;9931;51.458;7.256;2023-08-20T03:59:07;23.50;;;1.80;;
19569;SDS011;9931;51.458;7.256;2023-08-20T04:01:33;16.10;;;1.38;;
19569;SDS011;9931;51.458;7.256;2023-08-20T04:04:00;21.85;;;1.75;;
19569;SDS011;9931;51.458;7.256;2023-08-20T04:06:26;10.43;;;1.00;;
19569;SDS011;9931;51.458;7.256;2023-08-20T04:08:51;12.65;;;1.10;;
19569;SDS011;9931;51.458;7.256;2023-08-20T04:11:16;16.33;;;1.43;;
19569;SDS011;9931;51.458;7.256;2023-08-20T04:13:41;43.05;;;3.20;;
19569;SDS011;9931;51.458;7.256;2023-08-20T04:16:08;24.80;;;2.05;;
19569;SDS011;9931;51.458;7.256;2023-08-20T04:18:34;25.27;;;2.08;;
19569;SDS011;9931;51.458;7.256;2023-08-20T04:20:59;27.60;;;2.17;;
19569;SDS011;9931;51.458;7.256;2023-08-20T04:23:24;13.43;;;1.13;;
19569;SDS011;9931;51.458;7.256;2023-08-20T04:25:50;23.02;;;1.70;;
19569;SDS011;9931;51.458;7.256;2023-08-20T04:28:15;14.98;;;1.30;;
19569;SDS011;9931;51.458;7.256;2023-08-20T04:30:40;18.50;;;1.50;;
19569;SDS011;9931;51.458;7.256;2023-08-20T04:33:05;19.67;;;1.87;;
19569;SDS011;9931;51.458;7.256;2023-08-20T04:35:31;9.43;;;1.00;;
19569;SDS011;9931;51.458;7.256;2023-08-20T04:37:56;16.05;;;1.60;;
19569;SDS011;9931;51.458;7.256;2023-08-20T04:40:21;19.63;;;1.85;;
19569;SDS011;9931;51.458;7.256;2023-08-20T04:42:47;13.10;;;1.42;;
19569;SDS011;9931;51.458;7.256;2023-08-20T04:45:12;39.85;;;3.05;;
19569;SDS011;9931;51.458;7.256;2023-08-20T04:47:38;15.10;;;1.50;;
19569;SDS011;9931;51.458;7.256;2023-08-20T04:50:03;14.68;;;1.58;;
19569;SDS011;9931;51.458;7.256;2023-08-20T04:52:31;4.80;;;0.73;;
19569;SDS011;9931;51.458;7.256;2023-08-20T04:54:56;20.60;;;1.98;;
19569;SDS011;9931;51.458;7.256;2023-08-20T04:57:22;59.63;;;4.40;;
19569;SDS011;9931;51.458;7.256;2023-08-20T04:59:48;15.13;;;1.33;;
19569;SDS011;9931;51.458;7.256;2023-08-20T05:02:13;14.38;;;1.30;;
19569;SDS011;9931;51.458;7.256;2023-08-20T05:04:38;17.67;;;1.53;;
19569;SDS011;9931;51.458;7.256;2023-08-20T05:07:04;12.65;;;1.20;;
19569;SDS011;9931;51.458;7.256;2023-08-20T05:09:29;15.32;;;1.35;;
19569;SDS011;9931;51.458;7.256;2023-08-20T05:11:54;14.38;;;1.23;;
19569;SDS011;9931;51.458;7.256;2023-08-20T05:14:19;19.85;;;1.58;;
19569;SDS011;9931;51.458;7.256;2023-08-20T05:16:45;7.22;;;0.73;;
19569;SDS011;9931;51.458;7.256;2023-08-20T05:19:10;32.25;;;2.55;;
19569;SDS011;9931;51.458;7.256;2023-08-20T05:21:35;11.80;;;1.05;;
19569;SDS011;9931;51.458;7.256;2023-08-20T05:24:00;17.58;;;1.52;;
19569;SDS011;9931;51.458;7.256;2023-08-20T05:26:25;14.10;;;1.30;;
19569;SDS011;9931;51.458;7.256;2023-08-20T05:28:51;33.17;;;2.58;;
19569;SDS011;9931;51.458;7.256;2023-08-20T05:31:16;19.47;;;1.63;;
19569;SDS011;9931;51.458;7.256;2023-08-20T05:33:41;11.20;;;1.13;;
19569;SDS011;9931;51.458;7.256;2023-08-20T05:36:06;35.07;;;2.60;;
19569;SDS011;9931;51.458;7.256;2023-08-20T05:38:31;46.72;;;3.35;;
19569;SDS011;9931;51.458;7.256;2023-08-20T05:40:57;8.60;;;0.90;;
19569;SDS011;9931;51.458;7.256;2023-08-20T05:43:22;17.02;;;1.48;;
19569;SDS011;9931;51.458;7.256;2023-08-20T05:45:47;13.55;;;1.23;;
19569;SDS011;9931;51.458;7.256;2023-08-20T05:48:12;18.27;;;1.67;;
19569;SDS011;9931;51.458;7.256;2023-08-20T05:50:38;14.50;;;1.35;;
19569;SDS011;9931;51.458;7.256;2023-08-20T05:53:03;16.23;;;1.42;;
19569;SDS011;9931;51.458;7.256;2023-08-20T05:55:28;14.68;;;1.30;;
19569;SDS011;9931;51.458;7.256;2023-08-20T05:57:53;5.55;;;0.60;;
19569;SDS011;9931;51.458;7.256;2023-08-20T06:00:19;23.10;;;1.87;;
19569;SDS011;9931;51.458;7.256;2023-08-20T06:02:44;18.20;;;1.55;;
19569;SDS011;9931;51.458;7.256;2023-08-20T06:05:09;15.52;;;1.35;;
19569;SDS011;9931;51.458;7.256;2023-08-20T06:07:34;11.77;;;1.13;;
19569;SDS011;9931;51.458;7.256;2023-08-20T06:10:00;18.35;;;1.50;;
19569;SDS011;9931;51.458;7.256;2023-08-20T06:12:25;16.52;;;1.45;;
19569;SDS011;9931;51.458;7.256;2023-08-20T06:14:50;13.37;;;1.10;;
19569;SDS011;9931;51.458;7.256;2023-08-20T06:17:15;8.83;;;0.90;;
19569;SDS011;9931;51.458;7.256;2023-08-20T06:19:41;21.33;;;1.73;;
19569;SDS011;9931;51.458;7.256;2023-08-20T06:22:06;22.85;;;1.92;;
19569;SDS011;9931;51.458;7.256;2023-08-20T06:24:31;23.75;;;1.88;;
19569;SDS011;9931;51.458;7.256;2023-08-20T06:26:56;16.38;;;1.45;;
19569;SDS011;9931;51.458;7.256;2023-08-20T06:29:21;30.10;;;2.33;;
19569;SDS011;9931;51.458;7.256;2023-08-20T06:31:47;23.23;;;1.90;;
19569;SDS011;9931;51.458;7.256;2023-08-20T06:34:12;14.40;;;1.40;;
19569;SDS011;9931;51.458;7.256;2023-08-20T06:36:38;12.73;;;1.23;;
19569;SDS011;9931;51.458;7.256;2023-08-20T06:39:03;26.70;;;2.10;;
19569;SDS011;9931;51.458;7.256;2023-08-20T06:41:28;31.90;;;2.42;;
19569;SDS011;9931;51.458;7.256;2023-08-20T06:43:54;26.83;;;2.20;;
19569;SDS011;9931;51.458;7.256;2023-08-20T06:46:19;20.85;;;1.73;;
19569;SDS011;9931;51.458;7.256;2023-08-20T06:48:44;32.03;;;2.42;;
19569;SDS011;9931;51.458;7.256;2023-08-20T06:51:13;18.40;;;1.57;;
19569;SDS011;9931;51.458;7.256;2023-08-20T06:53:38;41.83;;;3.25;;
19569;SDS011;9931;51.458;7.256;2023-08-20T06:56:05;41.13;;;3.08;;
19569;SDS011;9931;51.458;7.256;2023-08-20T06:58:31;27.05;;;2.15;;
19569;SDS011;9931;51.458;7.256;2023-08-20T07:00:56;17.73;;;1.50;;
19569;SDS011;9931;51.458;7.256;2023-08-20T07:03:31;37.65;;;2.85;;
19569;SDS011;9931;51.458;7.256;2023-08-20T07:05:57;39.70;;;3.00;;
19569;SDS011;9931;51.458;7.256;2023-08-20T07:08:22;31.20;;;2.53;;
19569;SDS011;9931;51.458;7.256;2023-08-20T07:10:47;27.58;;;2.25;;
19569;SDS011;9931;51.458;7.256;2023-08-20T07:13:12;32.40;;;2.58;;
19569;SDS011;9931;51.458;7.256;2023-08-20T07:15:38;30.92;;;2.45;;
19569;SDS011;9931;51.458;7.256;2023-08-20T07:18:03;12.67;;;1.23;;
19569;SDS011;9931;51.458;7.256;2023-08-20T07:20:28;26.92;;;2.15;;
19569;SDS011;9931;51.458;7.256;2023-08-20T07:22:53;6.25;;;0.85;;
19569;SDS011;9931;51.458;7.256;2023-08-20T07:25:19;22.27;;;1.97;;
19569;SDS011;9931;51.458;7.256;2023-08-20T07:27:44;21.97;;;1.97;;
19569;SDS011;9931;51.458;7.256;2023-08-20T07:30:09;32.55;;;2.70;;
19569;SDS011;9931;51.458;7.256;2023-08-20T07:32:35;47.33;;;3.63;;
19569;SDS011;9931;51.458;7.256;2023-08-20T07:35:00;16.43;;;1.50;;
19569;SDS011;9931;51.458;7.256;2023-08-20T07:37:25;13.07;;;1.23;;
19569;SDS011;9931;51.458;7.256;2023-08-20T07:39:50;17.35;;;1.52;;
19569;SDS011;9931;51.458;7.256;2023-08-20T07:42:16;21.90;;;1.87;;
19569;SDS011;9931;51.458;7.256;2023-08-20T07:44:43;29.30;;;2.42;;
19569;SDS011;9931;51.458;7.256;2023-08-20T07:47:08;13.48;;;1.27;;
19569;SDS011;9931;51.458;7.256;2023-08-20T07:49:33;33.05;;;2.75;;
19569;SDS011;9931;51.458;7.256;2023-08-20T07:51:58;20.40;;;1.90;;
19569;SDS011;9931;51.458;7.256;2023-08-20T07:54:23;23.57;;;2.20;;
19569;SDS011;9931;51.458;7.256;2023-08-20T07:56:49;20.70;;;2.10;;
19569;SDS011;9931;51.458;7.256;2023-08-20T07:59:14;11.27;;;1.23;;
19569;SDS011;9931;51.458;7.256;2023-08-20T08:01:39;18.00;;;1.67;;
19569;SDS011;9931;51.458;7.256;2023-08-20T08:04:04;19.07;;;1.80;;
19569;SDS011;9931;51.458;7.256;2023-08-20T08:06:30;18.08;;;1.70;;
19569;SDS011;9931;51.458;7.256;2023-08-20T08:08:55;27.73;;;2.37;;
19569;SDS011;9931;51.458;7.256;2023-08-20T08:11:20;20.73;;;1.83;;
19569;SDS011;9931;51.458;7.256;2023-08-20T08:13:45;15.60;;;1.40;;
19569;SDS011;9931;51.458;7.256;2023-08-20T08:16:10;20.00;;;1.83;;
19569;SDS011;9931;51.458;7.256;2023-08-20T08:18:36;14.77;;;1.42;;
19569;SDS011;9931;51.458;7.256;2023-08-20T08:21:01;4.25;;;0.77;;
19569;SDS011;9931;51.458;7.256;2023-08-20T08:23:26;35.10;;;2.63;;
19569;SDS011;9931;51.458;7.256;2023-08-20T08:25:51;27.08;;;2.20;;
19569;SDS011;9931;51.458;7.256;2023-08-20T08:28:17;17.90;;;2.28;;
19569;SDS011;9931;51.458;7.256;2023-08-20T08:30:42;23.30;;;2.15;;
19569;SDS011;9931;51.458;7.256;2023-08-20T08:33:07;25.30;;;2.80;;
19569;SDS011;9931;51.458;7.256;2023-08-20T08:35:32;21.97;;;2.40;;
19569;SDS011;9931;51.458;7.256;2023-08-20T08:37:57;21.03;;;2.67;;
19569;SDS011;9931;51.458;7.256;2023-08-20T08:40:23;46.97;;;4.05;;
19569;SDS011;9931;51.458;7.256;2023-08-20T08:42:49;7.90;;;1.52;;
19569;SDS011;9931;51.458;7.256;2023-08-20T08:45:18;20.73;;;2.63;;
19569;SDS011;9931;51.458;7.256;2023-08-20T08:47:43;24.38;;;3.92;;
19569;SDS011;9931;51.458;7.256;2023-08-20T08:50:09;25.13;;;2.67;;
19569;SDS011;9931;51.458;7.256;2023-08-20T08:52:35;36.97;;;4.72;;
19569;SDS011;9931;51.458;7.256;2023-08-20T08:55:01;24.90;;;4.30;;
19569;SDS011;9931;51.458;7.256;2023-08-20T08:57:26;35.53;;;4.47;;
19569;SDS011;9931;51.458;7.256;2023-08-20T08:59:52;21.13;;;3.50;;
19569;SDS011;9931;51.458;7.256;2023-08-20T09:02:17;44.75;;;6.00;;
19569;SDS011;9931;51.458;7.256;2023-08-20T09:04:42;58.67;;;5.93;;
19569;SDS011;9931;51.458;7.256;2023-08-20T09:07:11;39.00;;;5.30;;
19569;SDS011;9931;51.458;7.256;2023-08-20T09:09:37;26.48;;;2.72;;
19569;SDS011;9931;51.458;7.256;2023-08-20T09:12:12;52.90;;;4.63;;
19569;SDS011;9931;51.458;7.256;2023-08-20T09:14:37;39.33;;;5.32;;
19569;SDS011;9931;51.458;7.256;2023-08-20T09:17:02;33.77;;;5.03;;
19569;SDS011;9931;51.458;7.256;2023-08-20T09:19:28;27.48;;;4.53;;
19569;SDS011;9931;51.458;7.256;2023-08-20T09:21:53;23.00;;;2.30;;
19569;SDS011;9931;51.458;7.256;2023-08-20T09:24:54;30.92;;;2.80;;
19569;SDS011;9931;51.458;7.256;2023-08-20T09:27:12;19.25;;;2.17;;
19569;SDS011;9931;51.458;7.256;2023-08-20T09:32:09;29.58;;;2.80;;
19569;SDS011;9931;51.458;7.256;2023-08-20T09:34:38;25.90;;;2.58;;
19569;SDS011;9931;51.458;7.256;2023-08-20T09:37:10;16.77;;;2.00;;
19569;SDS011;9931;51.458;7.256;2023-08-20T09:39:35;25.92;;;2.58;;
19569;SDS011;9931;51.458;7.256;2023-08-20T09:42:01;23.70;;;2.25;;
19569;SDS011;9931;51.458;7.256;2023-08-20T09:44:27;25.25;;;2.47;;
19569;SDS011;9931;51.458;7.256;2023-08-20T09:46:54;9.93;;;1.40;;
19569;SDS011;9931;51.458;7.256;2023-08-20T09:49:20;22.60;;;2.45;;
19569;SDS011;9931;51.458;7.256;2023-08-20T09:51:46;30.05;;;3.80;;
19569;SDS011;9931;51.458;7.256;2023-08-20T09:54:14;9.90;;;2.58;;
19569;SDS011;9931;51.458;7.256;2023-08-20T09:56:44;43.72;;;5.95;;
19569;SDS011;9931;51.458;7.256;2023-08-20T09:59:11;26.25;;;4.47;;
19569;SDS011;9931;51.458;7.256;2023-08-20T10:01:37;19.58;;;3.65;;
19569;SDS011;9931;51.458;7.256;2023-08-20T10:04:03;21.25;;;4.00;;
19569;SDS011;9931;51.458;7.256;2023-08-20T10:06:29;40.45;;;5.38;;
19569;SDS011;9931;51.458;7.256;2023-08-20T10:08:55;28.15;;;4.05;;
19569;SDS011;9931;51.458;7.256;2023-08-20T10:11:21;37.78;;;4.70;;
19569;SDS011;9931;51.458;7.256;2023-08-20T10:13:46;53.28;;;9.60;;
19569;SDS011;9931;51.458;7.256;2023-08-20T10:16:12;46.17;;;12.23;;
19569;SDS011;9931;51.458;7.256;2023-08-20T10:18:38;73.00;;;23.38;;
19569;SDS011;9931;51.458;7.256;2023-08-20T10:21:04;37.92;;;26.13;;
19569;SDS011;9931;51.458;7.256;2023-08-20T10:23:29;39.28;;;29.20;;
19569;SDS011;9931;51.458;7.256;2023-08-20T10:25:55;92.32;;;29.85;;
19569;SDS011;9931;51.458;7.256;2023-08-20T10:28:31;75.20;;;28.27;;
19569;SDS011;9931;51.458;7.256;2023-08-20T10:33:28;37.47;;;11.63;;
19569;SDS011;9931;51.458;7.256;2023-08-20T10:35:53;49.20;;;10.38;;
19569;SDS011;9931;51.458;7.256;2023-08-20T10:38:18;24.88;;;8.77;;
19569;SDS011;9931;51.458;7.256;2023-08-20T10:40:47;31.33;;;7.68;;
19569;SDS011;9931;51.458;7.256;2023-08-20T10:46:36;63.88;;;8.05;;
19569;SDS011;9931;51.458;7.256;2023-08-20T10:48:37;30.27;;;5.88;;
19569;SDS011;9931;51.458;7.256;2023-08-20T10:51:06;23.73;;;4.93;;
19569;SDS011;9931;51.458;7.256;2023-08-20T10:53:31;31.02;;;5.63;;
19569;SDS011;9931;51.458;7.256;2023-08-20T10:56:06;110.43;;;12.70;;
19569;SDS011;9931;51.458;7.256;2023-08-20T10:58:32;20.88;;;9.98;;
19569;SDS011;9931;51.458;7.256;2023-08-20T11:03:44;27.42;;;15.05;;
19569;SDS011;9931;51.458;7.256;2023-08-20T11:06:10;43.13;;;23.77;;
19569;SDS011;9931;51.458;7.256;2023-08-20T11:08:35;47.35;;;28.35;;
19569;SDS011;9931;51.458;7.256;2023-08-20T11:11:00;34.42;;;31.92;;
19569;SDS011;9931;51.458;7.256;2023-08-20T11:13:26;59.00;;;26.35;;
19569;SDS011;9931;51.458;7.256;2023-08-20T11:15:51;48.40;;;22.90;;
19569;SDS011;9931;51.458;7.256;2023-08-20T11:18:17;62.78;;;20.67;;
19569;SDS011;9931;51.458;7.256;2023-08-20T11:20:42;85.35;;;14.60;;
19569;SDS011;9931;51.458;7.256;2023-08-20T11:23:07;39.80;;;8.35;;
19569;SDS011;9931;51.458;7.256;2023-08-20T11:25:34;27.50;;;7.53;;
19569;SDS011;9931;51.458;7.256;2023-08-20T11:27:59;28.60;;;10.77;;
19569;SDS011;9931;51.458;7.256;2023-08-20T11:30:28;29.70;;;7.68;;
19569;SDS011;9931;51.458;7.256;2023-08-20T11:32:54;24.83;;;5.72;;
19569;SDS011;9931;51.458;7.256;2023-08-20T11:35:19;38.75;;;9.85;;
19569;SDS011;9931;51.458;7.256;2023-08-20T11:37:45;86.30;;;15.68;;
19569;SDS011;9931;51.458;7.256;2023-08-20T11:40:11;49.15;;;9.75;;
19569;SDS011;9931;51.458;7.256;2023-08-20T11:42:36;53.90;;;7.93;;
19569;SDS011;9931;51.458;7.256;2023-08-20T11:45:02;42.35;;;10.15;;
19569;SDS011;9931;51.458;7.256;2023-08-20T11:47:27;29.42;;;10.07;;
19569;SDS011;9931;51.458;7.256;2023-08-20T11:50:02;51.97;;;13.93;;
19569;SDS011;9931;51.458;7.256;2023-08-20T11:52:30;59.60;;;18.27;;
19569;SDS011;9931;51.458;7.256;2023-08-20T11:54:56;41.25;;;20.13;;
19569;SDS011;9931;51.458;7.256;2023-08-20T11:57:21;73.07;;;19.77;;
19569;SDS011;9931;51.458;7.256;2023-08-20T11:59:46;58.53;;;15.67;;
19569;SDS011;9931;51.458;7.256;2023-08-20T12:02:11;50.90;;;13.90;;
19569;SDS011;9931;51.458;7.256;2023-08-20T12:04:37;47.65;;;10.48;;
19569;SDS011;9931;51.458;7.256;2023-08-20T12:07:08;75.30;;;10.98;;
19569;SDS011;9931;51.458;7.256;2023-08-20T12:09:33;45.80;;;6.38;;
19569;SDS011;9931;51.458;7.256;2023-08-20T12:11:59;56.50;;;10.02;;
19569;SDS011;9931;51.458;7.256;2023-08-20T12:14:24;63.45;;;12.43;;
19569;SDS011;9931;51.458;7.256;2023-08-20T12:16:50;64.60;;;17.23;;
19569;SDS011;9931;51.458;7.256;2023-08-20T12:19:18;27.52;;;21.20;;
19569;SDS011;9931;51.458;7.256;2023-08-20T12:21:43;25.13;;;22.02;;
19569;SDS011;9931;51.458;7.256;2023-08-20T12:24:09;35.07;;;31.93;;
19569;SDS011;9931;51.458;7.256;2023-08-20T12:26:34;67.88;;;31.75;;
19569;SDS011;9931;51.458;7.256;2023-08-20T12:29:00;41.33;;;29.35;;
19569;SDS011;9931;51.458;7.256;2023-08-20T12:31:25;32.08;;;28.38;;
19569;SDS011;9931;51.458;7.256;2023-08-20T12:33:50;65.67;;;36.97;;
19569;SDS011;9931;51.458;7.256;2023-08-20T12:36:15;33.10;;;24.30;;
19569;SDS011;9931;51.458;7.256;2023-08-20T12:38:41;58.40;;;17.13;;
19569;SDS011;9931;51.458;7.256;2023-08-20T12:41:06;30.98;;;15.60;;
19569;SDS011;9931;51.458;7.256;2023-08-20T12:43:32;39.13;;;18.20;;
19569;SDS011;9931;51.458;7.256;2023-08-20T12:45:57;63.17;;;22.80;;
19569;SDS011;9931;51.458;7.256;2023-08-20T12:48:22;30.27;;;26.70;;
19569;SDS011;9931;51.458;7.256;2023-08-20T12:50:47;48.63;;;27.05;;
19569;SDS011;9931;51.458;7.256;2023-08-20T12:53:13;67.28;;;29.08;;
19569;SDS011;9931;51.458;7.256;2023-08-20T12:55:38;32.53;;;29.55;;
19569;SDS011;9931;51.458;7.256;2023-08-20T12:58:03;30.50;;;22.50;;
19569;SDS011;9931;51.458;7.256;2023-08-20T13:00:29;29.30;;;22.65;;
19569;SDS011;9931;51.458;7.256;2023-08-20T13:02:54;47.88;;;25.80;;
19569;SDS011;9931;51.458;7.256;2023-08-20T13:05:20;34.53;;;21.33;;
19569;SDS011;9931;51.458;7.256;2023-08-20T13:07:45;26.17;;;18.17;;
19569;SDS011;9931;51.458;7.256;2023-08-20T13:10:11;39.95;;;16.55;;
19569;SDS011;9931;51.458;7.256;2023-08-20T13:12:37;23.52;;;12.38;;
19569;SDS011;9931;51.458;7.256;2023-08-20T13:15:05;23.05;;;18.15;;
19569;SDS011;9931;51.458;7.256;2023-08-20T13:17:31;45.80;;;26.33;;
19569;SDS011;9931;51.458;7.256;2023-08-20T13:19:56;43.58;;;36.53;;
19569;SDS011;9931;51.458;7.256;2023-08-20T13:22:22;41.17;;;33.75;;
19569;SDS011;9931;51.458;7.256;2023-08-20T13:24:47;41.20;;;37.25;;
19569;SDS011;9931;51.458;7.256;2023-08-20T13:27:12;42.25;;;34.95;;
19569;SDS011;9931;51.458;7.256;2023-08-20T13:29:37;30.30;;;27.43;;
19569;SDS011;9931;51.458;7.256;2023-08-20T13:32:03;75.07;;;34.57;;
19569;SDS011;9931;51.458;7.256;2023-08-20T13:34:29;38.30;;;34.50;;
19569;SDS011;9931;51.458;7.256;2023-08-20T13:36:54;49.93;;;46.60;;
19569;SDS011;9931;51.458;7.256;2023-08-20T13:39:19;44.47;;;40.10;;
19569;SDS011;9931;51.458;7.256;2023-08-20T13:41:45;39.67;;;35.55;;
19569;SDS011;9931;51.458;7.256;2023-08-20T13:44:11;31.83;;;28.02;;
19569;SDS011;9931;51.458;7.256;2023-08-20T13:46:36;37.47;;;19.17;;
19569;SDS011;9931;51.458;7.256;2023-08-20T13:49:01;33.13;;;24.13;;
19569;SDS011;9931;51.458;7.256;2023-08-20T13:51:27;37.50;;;29.40;;
19569;SDS011;9931;51.458;7.256;2023-08-20T13:53:53;41.13;;;34.33;;
19569;SDS011;9931;51.458;7.256;2023-08-20T13:56:18;62.97;;;39.27;;
19569;SDS011;9931;51.458;7.256;2023-08-20T13:58:43;31.63;;;28.47;;
19569;SDS011;9931;51.458;7.256;2023-08-20T14:01:09;51.95;;;31.67;;
19569;SDS011;9931;51.458;7.256;2023-08-20T14:03:34;44.03;;;30.17;;
19569;SDS011;9931;51.458;7.256;2023-08-20T14:06:00;42.33;;;29.05;;
19569;SDS011;9931;51.458;7.256;2023-08-20T14:08:25;31.02;;;24.13;;
19569;SDS011;9931;51.458;7.256;2023-08-20T14:10:50;31.07;;;25.87;;
19569;SDS011;9931;51.458;7.256;2023-08-20T14:13:16;44.28;;;23.33;;
19569;SDS011;9931;51.458;7.256;2023-08-20T14:15:41;27.37;;;20.67;;
19569;SDS011;9931;51.458;7.256;2023-08-20T14:18:06;36.20;;;22.37;;
19569;SDS011;9931;51.458;7.256;2023-08-20T14:20:32;40.67;;;21.42;;
19569;SDS011;9931;51.458;7.256;2023-08-20T14:22:57;43.73;;;19.83;;
19569;SDS011;9931;51.458;7.256;2023-08-20T14:25:22;35.83;;;23.50;;
19569;SDS011;9931;51.458;7.256;2023-08-20T14:27:47;25.55;;;21.13;;
19569;SDS011;9931;51.458;7.256;2023-08-20T14:30:12;45.28;;;19.98;;
19569;SDS011;9931;51.458;7.256;2023-08-20T14:32:38;25.15;;;16.40;;
19569;SDS011;9931;51.458;7.256;2023-08-20T14:35:03;26.55;;;14.02;;
19569;SDS011;9931;51.458;7.256;2023-08-20T14:37:29;25.40;;;12.13;;
19569;SDS011;9931;51.458;7.256;2023-08-20T14:39:54;26.58;;;12.18;;
19569;SDS011;9931;51.458;7.256;2023-08-20T14:42:19;39.05;;;14.88;;
19569;SDS011;9931;51.458;7.256;2023-08-20T14:44:44;33.22;;;13.32;;
19569;SDS011;9931;51.458;7.256;2023-08-20T14:47:10;31.65;;;13.35;;
19569;SDS011;9931;51.458;7.256;2023-08-20T14:49:36;30.80;;;13.48;;
19569;SDS011;9931;51.458;7.256;2023-08-20T14:52:01;40.00;;;13.97;;